sensor_id;sensor_type;location;lat;lon;timestamp;P1;durP1;ratioP1;P2;durP2;ratioP2
15553;SDS011;7878;44.632;10.942;2022-08-21T00:01:09;4.18;;;1.60;;
15553;SDS011;7878;44.632;10.942;2022-08-21T00:03:38;1.70;;;1.60;;
15553;SDS011;7878;44.632;10.942;2022-08-21T00:06:04;3.05;;;1.80;;
15553;SDS011;7878;44.632;10.942;2022-08-21T00:08:30;2.97;;;1.77;;
15553;SDS011;7878;44.632;10.942;2022-08-21T00:10:55;1.92;;;1.63;;
15553;SDS011;7878;44.632;10.942;2022-08-21T00:13:21;1.73;;;1.58;;
15553;SDS011;7878;44.632;10.942;2022-08-21T00:15:47;6.82;;;2.22;;
15553;SDS011;7878;44.632;10.942;2022-08-21T00:18:14;2.63;;;1.80;;
15553;SDS011;7878;44.632;10.942;2022-08-21T00:20:40;2.05;;;1.85;;
15553;SDS011;7878;44.632;10.942;2022-08-21T00:23:08;2.70;;;2.08;;
15553;SDS011;7878;44.632;10.942;2022-08-21T00:25:34;3.10;;;2.08;;
15553;SDS011;7878;44.632;10.942;2022-08-21T00:28:00;6.13;;;2.20;;
15553;SDS011;7878;44.632;10.942;2022-08-21T00:30:27;2.75;;;1.90;;
15553;SDS011;7878;44.632;10.942;2022-08-21T00:32:53;4.03;;;1.90;;
15553;SDS011;7878;44.632;10.942;2022-08-21T00:35:23;4.63;;;2.22;;
15553;SDS011;7878;44.632;10.942;2022-08-21T00:37:51;2.00;;;1.80;;
15553;SDS011;7878;44.632;10.942;2022-08-21T00:40:19;2.72;;;2.03;;
15553;SDS011;7878;44.632;10.942;2022-08-21T00:42:47;2.13;;;1.80;;
15553;SDS011;7878;44.632;10.942;2022-08-21T00:45:14;2.33;;;1.80;;
15553;SDS011;7878;44.632;10.942;2022-08-21T00:47:40;3.05;;;1.90;;
15553;SDS011;7878;44.632;10.942;2022-08-21T00:50:08;2.75;;;2.20;;
15553;SDS011;7878;44.632;10.942;2022-08-21T00:52:35;3.28;;;2.35;;
15553;SDS011;7878;44.632;10.942;2022-08-21T00:55:03;2.10;;;1.92;;
15553;SDS011;7878;44.632;10.942;2022-08-21T00:57:35;2.97;;;1.90;;
15553;SDS011;7878;44.632;10.942;2022-08-21T01:00:07;3.95;;;1.77;;
15553;SDS011;7878;44.632;10.942;2022-08-21T01:02:35;3.17;;;2.20;;
15553;SDS011;7878;44.632;10.942;2022-08-21T01:05:02;3.88;;;2.00;;
15553;SDS011;7878;44.632;10.942;2022-08-21T01:07:29;2.28;;;2.03;;
15553;SDS011;7878;44.632;10.942;2022-08-21T01:09:56;3.85;;;2.10;;
15553;SDS011;7878;44.632;10.942;2022-08-21T01:12:22;3.22;;;2.00;;
15553;SDS011;7878;44.632;10.942;2022-08-21T01:14:48;3.50;;;2.05;;
15553;SDS011;7878;44.632;10.942;2022-08-21T01:17:14;2.50;;;2.30;;
15553;SDS011;7878;44.632;10.942;2022-08-21T01:19:41;5.32;;;2.60;;
15553;SDS011;7878;44.632;10.942;2022-08-21T01:22:08;4.95;;;2.35;;
15553;SDS011;7878;44.632;10.942;2022-08-21T01:24:34;5.03;;;2.58;;
15553;SDS011;7878;44.632;10.942;2022-08-21T01:27:00;5.97;;;2.35;;
15553;SDS011;7878;44.632;10.942;2022-08-21T01:29:32;3.08;;;2.15;;
15553;SDS011;7878;44.632;10.942;2022-08-21T01:32:28;3.30;;;2.22;;
15553;SDS011;7878;44.632;10.942;2022-08-21T01:34:54;3.03;;;2.38;;
15553;SDS011;7878;44.632;10.942;2022-08-21T01:37:20;3.35;;;2.33;;
15553;SDS011;7878;44.632;10.942;2022-08-21T01:39:46;3.33;;;2.30;;
15553;SDS011;7878;44.632;10.942;2022-08-21T01:42:12;2.55;;;2.35;;
15553;SDS011;7878;44.632;10.942;2022-08-21T01:44:38;2.45;;;2.25;;
15553;SDS011;7878;44.632;10.942;2022-08-21T01:47:05;2.92;;;2.42;;
15553;SDS011;7878;44.632;10.942;2022-08-21T01:49:35;2.25;;;2.00;;
15553;SDS011;7878;44.632;10.942;2022-08-21T01:52:01;2.10;;;1.90;;
15553;SDS011;7878;44.632;10.942;2022-08-21T01:54:28;4.25;;;2.20;;
15553;SDS011;7878;44.632;10.942;2022-08-21T01:56:54;2.45;;;1.98;;
15553;SDS011;7878;44.632;10.942;2022-08-21T01:59:20;4.93;;;2.08;;
15553;SDS011;7878;44.632;10.942;2022-08-21T02:01:48;3.42;;;2.33;;
15553;SDS011;7878;44.632;10.942;2022-08-21T02:04:14;2.83;;;2.53;;
15553;SDS011;7878;44.632;10.942;2022-08-21T02:06:41;2.22;;;2.03;;
15553;SDS011;7878;44.632;10.942;2022-08-21T02:09:08;3.78;;;2.42;;
15553;SDS011;7878;44.632;10.942;2022-08-21T02:11:34;2.85;;;2.55;;
15553;SDS011;7878;44.632;10.942;2022-08-21T02:14:00;3.05;;;2.42;;
15553;SDS011;7878;44.632;10.942;2022-08-21T02:16:26;4.53;;;2.50;;
15553;SDS011;7878;44.632;10.942;2022-08-21T02:18:52;3.17;;;2.60;;
15553;SDS011;7878;44.632;10.942;2022-08-21T02:21:18;2.90;;;2.40;;
15553;SDS011;7878;44.632;10.942;2022-08-21T02:23:43;2.65;;;2.45;;
15553;SDS011;7878;44.632;10.942;2022-08-21T02:26:10;2.38;;;2.17;;
15553;SDS011;7878;44.632;10.942;2022-08-21T02:28:36;3.22;;;2.17;;
15553;SDS011;7878;44.632;10.942;2022-08-21T02:31:02;3.08;;;2.45;;
15553;SDS011;7878;44.632;10.942;2022-08-21T02:33:28;2.72;;;2.30;;
15553;SDS011;7878;44.632;10.942;2022-08-21T02:35:54;5.20;;;2.40;;
15553;SDS011;7878;44.632;10.942;2022-08-21T02:38:23;3.20;;;2.55;;
15553;SDS011;7878;44.632;10.942;2022-08-21T02:40:51;3.25;;;2.90;;
15553;SDS011;7878;44.632;10.942;2022-08-21T02:43:19;4.93;;;2.20;;
15553;SDS011;7878;44.632;10.942;2022-08-21T02:45:46;2.72;;;2.42;;
15553;SDS011;7878;44.632;10.942;2022-08-21T02:48:15;2.53;;;2.33;;
15553;SDS011;7878;44.632;10.942;2022-08-21T02:50:46;4.43;;;2.40;;
15553;SDS011;7878;44.632;10.942;2022-08-21T02:53:14;4.13;;;2.70;;
15553;SDS011;7878;44.632;10.942;2022-08-21T02:55:41;3.83;;;2.47;;
15553;SDS011;7878;44.632;10.942;2022-08-21T02:58:12;4.43;;;2.17;;
15553;SDS011;7878;44.632;10.942;2022-08-21T03:00:39;2.53;;;1.95;;
15553;SDS011;7878;44.632;10.942;2022-08-21T03:03:05;4.00;;;1.77;;
15553;SDS011;7878;44.632;10.942;2022-08-21T03:05:31;4.15;;;2.10;;
15553;SDS011;7878;44.632;10.942;2022-08-21T03:07:59;3.15;;;2.00;;
15553;SDS011;7878;44.632;10.942;2022-08-21T03:10:26;2.20;;;2.00;;
15553;SDS011;7878;44.632;10.942;2022-08-21T03:12:52;4.10;;;1.90;;
15553;SDS011;7878;44.632;10.942;2022-08-21T03:15:20;3.05;;;2.25;;
15553;SDS011;7878;44.632;10.942;2022-08-21T03:17:48;2.45;;;1.73;;
15553;SDS011;7878;44.632;10.942;2022-08-21T03:20:16;2.63;;;2.00;;
15553;SDS011;7878;44.632;10.942;2022-08-21T03:22:45;2.08;;;1.80;;
15553;SDS011;7878;44.632;10.942;2022-08-21T03:25:11;2.22;;;2.00;;
15553;SDS011;7878;44.632;10.942;2022-08-21T03:27:37;2.30;;;2.03;;
15553;SDS011;7878;44.632;10.942;2022-08-21T03:30:03;4.22;;;2.00;;
15553;SDS011;7878;44.632;10.942;2022-08-21T03:32:30;3.60;;;2.08;;
15553;SDS011;7878;44.632;10.942;2022-08-21T03:34:56;2.13;;;1.92;;
15553;SDS011;7878;44.632;10.942;2022-08-21T03:37:23;3.80;;;2.13;;
15553;SDS011;7878;44.632;10.942;2022-08-21T03:39:52;3.83;;;1.90;;
15553;SDS011;7878;44.632;10.942;2022-08-21T03:42:18;5.07;;;2.22;;
15553;SDS011;7878;44.632;10.942;2022-08-21T03:44:43;3.15;;;1.95;;
15553;SDS011;7878;44.632;10.942;2022-08-21T03:47:09;7.53;;;2.13;;
15553;SDS011;7878;44.632;10.942;2022-08-21T03:49:35;3.97;;;1.95;;
15553;SDS011;7878;44.632;10.942;2022-08-21T03:52:01;3.65;;;2.38;;
15553;SDS011;7878;44.632;10.942;2022-08-21T03:54:27;2.35;;;2.10;;
15553;SDS011;7878;44.632;10.942;2022-08-21T03:56:53;1.70;;;1.60;;
15553;SDS011;7878;44.632;10.942;2022-08-21T03:59:19;4.90;;;1.88;;
15553;SDS011;7878;44.632;10.942;2022-08-21T04:01:54;3.25;;;1.95;;
15553;SDS011;7878;44.632;10.942;2022-08-21T04:04:21;1.65;;;1.55;;
15553;SDS011;7878;44.632;10.942;2022-08-21T04:06:48;2.08;;;1.90;;
15553;SDS011;7878;44.632;10.942;2022-08-21T04:09:14;4.13;;;2.53;;
15553;SDS011;7878;44.632;10.942;2022-08-21T04:11:41;3.55;;;2.03;;
15553;SDS011;7878;44.632;10.942;2022-08-21T04:14:06;2.17;;;1.98;;
15553;SDS011;7878;44.632;10.942;2022-08-21T04:16:32;2.40;;;2.00;;
15553;SDS011;7878;44.632;10.942;2022-08-21T04:18:58;3.90;;;2.10;;
15553;SDS011;7878;44.632;10.942;2022-08-21T04:21:23;3.25;;;1.77;;
15553;SDS011;7878;44.632;10.942;2022-08-21T04:23:49;3.38;;;1.80;;
15553;SDS011;7878;44.632;10.942;2022-08-21T04:26:15;2.10;;;2.00;;
15553;SDS011;7878;44.632;10.942;2022-08-21T04:28:41;3.95;;;2.08;;
15553;SDS011;7878;44.632;10.942;2022-08-21T04:31:08;4.95;;;2.10;;
15553;SDS011;7878;44.632;10.942;2022-08-21T04:33:34;4.30;;;1.73;;
15553;SDS011;7878;44.632;10.942;2022-08-21T04:35:59;4.30;;;2.22;;
15553;SDS011;7878;44.632;10.942;2022-08-21T04:38:25;6.43;;;2.40;;
15553;SDS011;7878;44.632;10.942;2022-08-21T04:40:51;2.92;;;2.20;;
15553;SDS011;7878;44.632;10.942;2022-08-21T04:43:17;2.10;;;1.90;;
15553;SDS011;7878;44.632;10.942;2022-08-21T04:45:45;5.05;;;1.92;;
15553;SDS011;7878;44.632;10.942;2022-08-21T04:48:13;3.63;;;2.30;;
15553;SDS011;7878;44.632;10.942;2022-08-21T04:53:16;3.00;;;2.13;;
15553;SDS011;7878;44.632;10.942;2022-08-21T04:55:45;3.00;;;2.00;;
15553;SDS011;7878;44.632;10.942;2022-08-21T04:58:13;3.38;;;1.98;;
15553;SDS011;7878;44.632;10.942;2022-08-21T05:00:42;2.50;;;2.20;;
15553;SDS011;7878;44.632;10.942;2022-08-21T05:03:09;5.60;;;2.00;;
15553;SDS011;7878;44.632;10.942;2022-08-21T05:05:37;6.28;;;1.90;;
15553;SDS011;7878;44.632;10.942;2022-08-21T05:08:04;3.63;;;2.20;;
15553;SDS011;7878;44.632;10.942;2022-08-21T05:10:32;3.92;;;2.00;;
15553;SDS011;7878;44.632;10.942;2022-08-21T05:12:58;2.42;;;2.00;;
15553;SDS011;7878;44.632;10.942;2022-08-21T05:15:25;4.97;;;2.13;;
15553;SDS011;7878;44.632;10.942;2022-08-21T05:17:51;5.93;;;1.88;;
15553;SDS011;7878;44.632;10.942;2022-08-21T05:20:17;4.97;;;2.20;;
15553;SDS011;7878;44.632;10.942;2022-08-21T05:22:43;2.78;;;2.28;;
15553;SDS011;7878;44.632;10.942;2022-08-21T05:25:09;2.47;;;2.28;;
15553;SDS011;7878;44.632;10.942;2022-08-21T05:27:35;3.75;;;1.70;;
15553;SDS011;7878;44.632;10.942;2022-08-21T05:30:02;2.00;;;1.90;;
15553;SDS011;7878;44.632;10.942;2022-08-21T05:32:28;2.88;;;2.30;;
15553;SDS011;7878;44.632;10.942;2022-08-21T05:34:54;2.15;;;1.70;;
15553;SDS011;7878;44.632;10.942;2022-08-21T05:37:20;3.83;;;1.83;;
15553;SDS011;7878;44.632;10.942;2022-08-21T05:39:46;1.92;;;1.70;;
15553;SDS011;7878;44.632;10.942;2022-08-21T05:42:12;3.85;;;1.80;;
15553;SDS011;7878;44.632;10.942;2022-08-21T05:44:37;3.25;;;1.58;;
15553;SDS011;7878;44.632;10.942;2022-08-21T05:47:07;1.92;;;1.52;;
15553;SDS011;7878;44.632;10.942;2022-08-21T05:49:34;2.25;;;1.70;;
15553;SDS011;7878;44.632;10.942;2022-08-21T05:52:01;2.75;;;1.58;;
15553;SDS011;7878;44.632;10.942;2022-08-21T05:54:27;1.83;;;1.70;;
15553;SDS011;7878;44.632;10.942;2022-08-21T05:56:53;6.63;;;2.15;;
15553;SDS011;7878;44.632;10.942;2022-08-21T05:59:18;2.05;;;1.90;;
15553;SDS011;7878;44.632;10.942;2022-08-21T06:01:44;4.85;;;1.80;;
15553;SDS011;7878;44.632;10.942;2022-08-21T06:04:10;1.90;;;1.77;;
15553;SDS011;7878;44.632;10.942;2022-08-21T06:06:37;3.55;;;2.20;;
15553;SDS011;7878;44.632;10.942;2022-08-21T06:09:03;2.55;;;2.35;;
15553;SDS011;7878;44.632;10.942;2022-08-21T06:11:29;3.50;;;2.20;;
15553;SDS011;7878;44.632;10.942;2022-08-21T06:13:56;2.20;;;2.10;;
15553;SDS011;7878;44.632;10.942;2022-08-21T06:16:22;3.75;;;2.50;;
15553;SDS011;7878;44.632;10.942;2022-08-21T06:18:50;2.83;;;2.15;;
15553;SDS011;7878;44.632;10.942;2022-08-21T06:21:16;5.22;;;2.10;;
15553;SDS011;7878;44.632;10.942;2022-08-21T06:23:42;4.00;;;2.10;;
15553;SDS011;7878;44.632;10.942;2022-08-21T06:26:08;3.92;;;2.20;;
15553;SDS011;7878;44.632;10.942;2022-08-21T06:28:35;5.47;;;4.25;;
15553;SDS011;7878;44.632;10.942;2022-08-21T06:31:09;9.52;;;2.78;;
15553;SDS011;7878;44.632;10.942;2022-08-21T06:33:45;2.33;;;2.13;;
15553;SDS011;7878;44.632;10.942;2022-08-21T06:36:10;2.40;;;2.20;;
15553;SDS011;7878;44.632;10.942;2022-08-21T06:38:37;3.92;;;1.90;;
15553;SDS011;7878;44.632;10.942;2022-08-21T06:41:03;2.30;;;2.10;;
15553;SDS011;7878;44.632;10.942;2022-08-21T06:43:29;2.33;;;1.85;;
15553;SDS011;7878;44.632;10.942;2022-08-21T06:45:55;2.70;;;2.00;;
15553;SDS011;7878;44.632;10.942;2022-08-21T06:48:20;4.60;;;2.55;;
15553;SDS011;7878;44.632;10.942;2022-08-21T06:50:46;5.75;;;2.15;;
15553;SDS011;7878;44.632;10.942;2022-08-21T06:53:13;2.85;;;2.15;;
15553;SDS011;7878;44.632;10.942;2022-08-21T06:55:40;3.38;;;2.25;;
15553;SDS011;7878;44.632;10.942;2022-08-21T06:58:07;2.88;;;2.20;;
15553;SDS011;7878;44.632;10.942;2022-08-21T07:00:33;4.10;;;2.13;;
15553;SDS011;7878;44.632;10.942;2022-08-21T07:03:00;2.72;;;2.00;;
15553;SDS011;7878;44.632;10.942;2022-08-21T07:05:26;3.38;;;1.95;;
15553;SDS011;7878;44.632;10.942;2022-08-21T07:07:56;3.47;;;1.85;;
15553;SDS011;7878;44.632;10.942;2022-08-21T07:10:23;4.05;;;1.92;;
15553;SDS011;7878;44.632;10.942;2022-08-21T07:12:49;3.15;;;1.90;;
15553;SDS011;7878;44.632;10.942;2022-08-21T07:15:15;5.00;;;2.28;;
15553;SDS011;7878;44.632;10.942;2022-08-21T07:17:41;3.83;;;2.28;;
15553;SDS011;7878;44.632;10.942;2022-08-21T07:20:07;3.17;;;2.00;;
15553;SDS011;7878;44.632;10.942;2022-08-21T07:22:34;2.67;;;2.47;;
15553;SDS011;7878;44.632;10.942;2022-08-21T07:25:02;2.83;;;2.10;;
15553;SDS011;7878;44.632;10.942;2022-08-21T07:27:29;2.25;;;1.92;;
15553;SDS011;7878;44.632;10.942;2022-08-21T07:29:55;3.65;;;1.98;;
15553;SDS011;7878;44.632;10.942;2022-08-21T07:32:21;2.45;;;2.00;;
15553;SDS011;7878;44.632;10.942;2022-08-21T07:34:47;3.15;;;1.80;;
15553;SDS011;7878;44.632;10.942;2022-08-21T07:37:12;2.08;;;1.83;;
15553;SDS011;7878;44.632;10.942;2022-08-21T07:39:38;2.95;;;1.95;;
15553;SDS011;7878;44.632;10.942;2022-08-21T07:42:04;3.03;;;1.90;;
15553;SDS011;7878;44.632;10.942;2022-08-21T07:44:29;9.18;;;1.70;;
15553;SDS011;7878;44.632;10.942;2022-08-21T07:46:55;2.55;;;1.95;;
15553;SDS011;7878;44.632;10.942;2022-08-21T07:49:21;2.60;;;1.65;;
15553;SDS011;7878;44.632;10.942;2022-08-21T07:51:47;3.40;;;1.90;;
15553;SDS011;7878;44.632;10.942;2022-08-21T07:54:12;2.10;;;1.90;;
15553;SDS011;7878;44.632;10.942;2022-08-21T07:56:38;4.53;;;2.10;;
15553;SDS011;7878;44.632;10.942;2022-08-21T07:59:03;2.00;;;1.88;;
15553;SDS011;7878;44.632;10.942;2022-08-21T08:01:29;2.33;;;1.80;;
15553;SDS011;7878;44.632;10.942;2022-08-21T08:03:55;3.90;;;2.10;;
15553;SDS011;7878;44.632;10.942;2022-08-21T08:06:21;1.92;;;1.83;;
15553;SDS011;7878;44.632;10.942;2022-08-21T08:08:48;7.18;;;2.30;;
15553;SDS011;7878;44.632;10.942;2022-08-21T08:11:14;3.53;;;2.17;;
15553;SDS011;7878;44.632;10.942;2022-08-21T08:13:47;3.20;;;2.20;;
15553;SDS011;7878;44.632;10.942;2022-08-21T08:16:15;3.05;;;2.20;;
15553;SDS011;7878;44.632;10.942;2022-08-21T08:18:41;4.28;;;2.10;;
15553;SDS011;7878;44.632;10.942;2022-08-21T08:21:07;3.75;;;2.05;;
15553;SDS011;7878;44.632;10.942;2022-08-21T08:23:34;3.20;;;2.40;;
15553;SDS011;7878;44.632;10.942;2022-08-21T08:26:00;2.67;;;2.00;;
15553;SDS011;7878;44.632;10.942;2022-08-21T08:28:27;4.43;;;1.95;;
15553;SDS011;7878;44.632;10.942;2022-08-21T08:30:56;2.95;;;2.22;;
15553;SDS011;7878;44.632;10.942;2022-08-21T08:33:22;1.92;;;1.83;;
15553;SDS011;7878;44.632;10.942;2022-08-21T08:35:48;2.60;;;1.77;;
15553;SDS011;7878;44.632;10.942;2022-08-21T08:38:16;3.58;;;2.33;;
15553;SDS011;7878;44.632;10.942;2022-08-21T08:43:38;2.60;;;2.40;;
15553;SDS011;7878;44.632;10.942;2022-08-21T08:46:09;2.53;;;2.10;;
15553;SDS011;7878;44.632;10.942;2022-08-21T08:48:41;3.28;;;2.92;;
15553;SDS011;7878;44.632;10.942;2022-08-21T08:51:16;4.50;;;2.92;;
15553;SDS011;7878;44.632;10.942;2022-08-21T08:54:08;3.88;;;3.22;;
15553;SDS011;7878;44.632;10.942;2022-08-21T08:56:37;4.88;;;3.42;;
15553;SDS011;7878;44.632;10.942;2022-08-21T08:59:19;6.18;;;3.13;;
15553;SDS011;7878;44.632;10.942;2022-08-21T09:01:51;6.85;;;4.45;;
15553;SDS011;7878;44.632;10.942;2022-08-21T09:04:19;4.32;;;3.92;;
15553;SDS011;7878;44.632;10.942;2022-08-21T09:10:25;6.97;;;3.50;;
15553;SDS011;7878;44.632;10.942;2022-08-21T09:26:12;3.65;;;3.35;;
15553;SDS011;7878;44.632;10.942;2022-08-21T09:28:40;8.40;;;3.75;;
15553;SDS011;7878;44.632;10.942;2022-08-21T09:31:07;5.15;;;4.45;;
15553;SDS011;7878;44.632;10.942;2022-08-21T09:33:46;6.85;;;4.40;;
15553;SDS011;7878;44.632;10.942;2022-08-21T09:36:11;4.60;;;3.45;;
15553;SDS011;7878;44.632;10.942;2022-08-21T09:38:51;4.43;;;3.97;;
15553;SDS011;7878;44.632;10.942;2022-08-21T09:41:25;6.15;;;4.43;;
15553;SDS011;7878;44.632;10.942;2022-08-21T09:43:56;8.20;;;4.00;;
15553;SDS011;7878;44.632;10.942;2022-08-21T09:46:26;8.00;;;4.78;;
15553;SDS011;7878;44.632;10.942;2022-08-21T09:48:53;7.32;;;3.95;;
15553;SDS011;7878;44.632;10.942;2022-08-21T09:51:22;5.00;;;4.30;;
15553;SDS011;7878;44.632;10.942;2022-08-21T09:53:51;5.20;;;4.00;;
15553;SDS011;7878;44.632;10.942;2022-08-21T09:56:34;4.15;;;3.75;;
15553;SDS011;7878;44.632;10.942;2022-08-21T09:59:26;9.75;;;4.10;;
15553;SDS011;7878;44.632;10.942;2022-08-21T10:01:55;5.22;;;3.60;;
15553;SDS011;7878;44.632;10.942;2022-08-21T10:04:33;3.85;;;3.40;;
15553;SDS011;7878;44.632;10.942;2022-08-21T10:07:07;5.03;;;3.03;;
15553;SDS011;7878;44.632;10.942;2022-08-21T10:09:39;5.05;;;3.47;;
15553;SDS011;7878;44.632;10.942;2022-08-21T10:12:11;4.07;;;3.25;;
15553;SDS011;7878;44.632;10.942;2022-08-21T10:17:36;3.30;;;3.00;;
15553;SDS011;7878;44.632;10.942;2022-08-21T10:25:43;3.85;;;2.80;;
15553;SDS011;7878;44.632;10.942;2022-08-21T10:28:37;4.35;;;3.33;;
15553;SDS011;7878;44.632;10.942;2022-08-21T10:55:18;6.50;;;3.30;;
15553;SDS011;7878;44.632;10.942;2022-08-21T10:58:10;5.00;;;2.90;;
15553;SDS011;7878;44.632;10.942;2022-08-21T11:00:49;3.55;;;2.80;;
15553;SDS011;7878;44.632;10.942;2022-08-21T11:08:43;3.15;;;2.20;;
15553;SDS011;7878;44.632;10.942;2022-08-21T11:13:44;6.82;;;2.30;;
15553;SDS011;7878;44.632;10.942;2022-08-21T11:18:56;2.88;;;2.50;;
15553;SDS011;7878;44.632;10.942;2022-08-21T11:24:24;4.50;;;2.55;;
15553;SDS011;7878;44.632;10.942;2022-08-21T11:27:14;2.47;;;2.28;;
15553;SDS011;7878;44.632;10.942;2022-08-21T11:29:53;4.45;;;2.30;;
15553;SDS011;7878;44.632;10.942;2022-08-21T11:38:36;3.58;;;2.63;;
15553;SDS011;7878;44.632;10.942;2022-08-21T11:52:23;3.22;;;2.63;;
15553;SDS011;7878;44.632;10.942;2022-08-21T11:55:41;2.83;;;2.30;;
15553;SDS011;7878;44.632;10.942;2022-08-21T11:58:01;5.18;;;2.20;;
15553;SDS011;7878;44.632;10.942;2022-08-21T12:00:53;5.28;;;2.60;;
15553;SDS011;7878;44.632;10.942;2022-08-21T12:06:26;3.63;;;2.03;;
15553;SDS011;7878;44.632;10.942;2022-08-21T12:09:03;3.67;;;2.20;;
15553;SDS011;7878;44.632;10.942;2022-08-21T12:11:32;2.30;;;2.10;;
15553;SDS011;7878;44.632;10.942;2022-08-21T12:16:36;4.22;;;1.95;;
15553;SDS011;7878;44.632;10.942;2022-08-21T12:19:08;2.38;;;1.88;;
15553;SDS011;7878;44.632;10.942;2022-08-21T12:35:42;2.67;;;2.00;;
15553;SDS011;7878;44.632;10.942;2022-08-21T12:38:14;2.83;;;1.83;;
15553;SDS011;7878;44.632;10.942;2022-08-21T12:40:52;2.42;;;1.83;;
15553;SDS011;7878;44.632;10.942;2022-08-21T12:43:47;1.90;;;1.80;;
15553;SDS011;7878;44.632;10.942;2022-08-21T12:46:37;2.38;;;1.65;;
15553;SDS011;7878;44.632;10.942;2022-08-21T12:49:13;3.05;;;2.00;;
15553;SDS011;7878;44.632;10.942;2022-08-21T12:54:28;1.55;;;1.45;;
15553;SDS011;7878;44.632;10.942;2022-08-21T12:56:56;2.65;;;1.60;;
15553;SDS011;7878;44.632;10.942;2022-08-21T12:59:27;1.92;;;1.77;;
15553;SDS011;7878;44.632;10.942;2022-08-21T13:01:53;1.83;;;1.67;;
15553;SDS011;7878;44.632;10.942;2022-08-21T13:04:32;2.05;;;1.85;;
15553;SDS011;7878;44.632;10.942;2022-08-21T13:07:06;2.25;;;2.05;;
15553;SDS011;7878;44.632;10.942;2022-08-21T13:09:39;2.58;;;1.85;;
15553;SDS011;7878;44.632;10.942;2022-08-21T13:12:13;2.67;;;1.90;;
15553;SDS011;7878;44.632;10.942;2022-08-21T13:14:41;2.95;;;2.00;;
15553;SDS011;7878;44.632;10.942;2022-08-21T13:17:09;2.92;;;2.10;;
15553;SDS011;7878;44.632;10.942;2022-08-21T13:19:36;2.05;;;1.85;;
15553;SDS011;7878;44.632;10.942;2022-08-21T13:22:02;1.95;;;1.80;;
15553;SDS011;7878;44.632;10.942;2022-08-21T13:24:35;2.05;;;1.77;;
15553;SDS011;7878;44.632;10.942;2022-08-21T13:27:03;6.05;;;2.10;;
15553;SDS011;7878;44.632;10.942;2022-08-21T13:29:40;1.90;;;1.73;;
15553;SDS011;7878;44.632;10.942;2022-08-21T13:32:05;2.15;;;2.00;;
15553;SDS011;7878;44.632;10.942;2022-08-21T13:34:43;2.22;;;1.63;;
15553;SDS011;7878;44.632;10.942;2022-08-21T13:37:08;1.45;;;1.35;;
15553;SDS011;7878;44.632;10.942;2022-08-21T13:39:36;3.25;;;1.73;;
15553;SDS011;7878;44.632;10.942;2022-08-21T13:42:03;2.17;;;1.60;;
15553;SDS011;7878;44.632;10.942;2022-08-21T13:44:39;3.92;;;1.90;;
15553;SDS011;7878;44.632;10.942;2022-08-21T13:47:06;2.10;;;1.90;;
15553;SDS011;7878;44.632;10.942;2022-08-21T13:49:45;1.73;;;1.63;;
15553;SDS011;7878;44.632;10.942;2022-08-21T13:52:14;2.95;;;1.80;;
15553;SDS011;7878;44.632;10.942;2022-08-21T13:54:41;2.80;;;1.75;;
15553;SDS011;7878;44.632;10.942;2022-08-21T13:57:18;3.55;;;2.00;;
15553;SDS011;7878;44.632;10.942;2022-08-21T13:59:49;2.15;;;1.90;;
15553;SDS011;7878;44.632;10.942;2022-08-21T14:02:16;6.93;;;1.95;;
15553;SDS011;7878;44.632;10.942;2022-08-21T14:04:54;1.77;;;1.67;;
15553;SDS011;7878;44.632;10.942;2022-08-21T14:09:59;2.83;;;2.00;;
15553;SDS011;7878;44.632;10.942;2022-08-21T14:12:34;2.08;;;1.92;;
15553;SDS011;7878;44.632;10.942;2022-08-21T14:15:07;1.83;;;1.40;;
15553;SDS011;7878;44.632;10.942;2022-08-21T14:17:38;7.40;;;1.60;;
15553;SDS011;7878;44.632;10.942;2022-08-21T14:20:07;1.60;;;1.50;;
15553;SDS011;7878;44.632;10.942;2022-08-21T14:25:14;1.90;;;1.80;;
15553;SDS011;7878;44.632;10.942;2022-08-21T14:28:06;2.28;;;1.80;;
15553;SDS011;7878;44.632;10.942;2022-08-21T14:30:37;5.47;;;2.35;;
15553;SDS011;7878;44.632;10.942;2022-08-21T14:33:08;1.70;;;1.60;;
15553;SDS011;7878;44.632;10.942;2022-08-21T14:35:35;3.40;;;1.80;;
15553;SDS011;7878;44.632;10.942;2022-08-21T14:38:01;7.55;;;2.00;;
15553;SDS011;7878;44.632;10.942;2022-08-21T14:40:35;1.95;;;1.85;;
15553;SDS011;7878;44.632;10.942;2022-08-21T14:43:01;1.83;;;1.73;;
15553;SDS011;7878;44.632;10.942;2022-08-21T14:45:28;15.95;;;2.83;;
15553;SDS011;7878;44.632;10.942;2022-08-21T14:47:55;6.72;;;2.00;;
15553;SDS011;7878;44.632;10.942;2022-08-21T14:50:22;3.90;;;1.95;;
15553;SDS011;7878;44.632;10.942;2022-08-21T14:52:48;1.80;;;1.70;;
15553;SDS011;7878;44.632;10.942;2022-08-21T14:55:14;3.65;;;1.50;;
15553;SDS011;7878;44.632;10.942;2022-08-21T14:57:42;2.95;;;1.70;;
15553;SDS011;7878;44.632;10.942;2022-08-21T15:00:11;1.70;;;1.60;;
15553;SDS011;7878;44.632;10.942;2022-08-21T15:02:38;2.83;;;1.50;;
15553;SDS011;7878;44.632;10.942;2022-08-21T15:05:04;1.60;;;1.50;;
15553;SDS011;7878;44.632;10.942;2022-08-21T15:07:30;1.98;;;1.88;;
15553;SDS011;7878;44.632;10.942;2022-08-21T15:09:56;2.03;;;1.80;;
15553;SDS011;7878;44.632;10.942;2022-08-21T15:12:22;4.15;;;1.80;;
15553;SDS011;7878;44.632;10.942;2022-08-21T15:14:49;1.85;;;1.55;;
15553;SDS011;7878;44.632;10.942;2022-08-21T15:17:15;6.30;;;1.50;;
15553;SDS011;7878;44.632;10.942;2022-08-21T15:19:41;4.68;;;1.77;;
15553;SDS011;7878;44.632;10.942;2022-08-21T15:22:07;2.55;;;1.98;;
15553;SDS011;7878;44.632;10.942;2022-08-21T15:24:32;2.03;;;1.85;;
15553;SDS011;7878;44.632;10.942;2022-08-21T15:26:59;2.95;;;1.80;;
15553;SDS011;7878;44.632;10.942;2022-08-21T15:29:28;2.13;;;1.70;;
15553;SDS011;7878;44.632;10.942;2022-08-21T15:31:56;2.50;;;1.50;;
15553;SDS011;7878;44.632;10.942;2022-08-21T15:34:24;2.30;;;1.30;;
15553;SDS011;7878;44.632;10.942;2022-08-21T15:36:56;2.17;;;1.92;;
15553;SDS011;7878;44.632;10.942;2022-08-21T15:39:24;2.95;;;2.03;;
15553;SDS011;7878;44.632;10.942;2022-08-21T15:41:50;2.40;;;1.80;;
15553;SDS011;7878;44.632;10.942;2022-08-21T15:44:16;3.17;;;2.70;;
15553;SDS011;7878;44.632;10.942;2022-08-21T15:46:42;3.15;;;2.10;;
15553;SDS011;7878;44.632;10.942;2022-08-21T15:49:09;1.73;;;1.63;;
15553;SDS011;7878;44.632;10.942;2022-08-21T15:51:35;2.75;;;1.80;;
15553;SDS011;7878;44.632;10.942;2022-08-21T15:54:01;1.85;;;1.58;;
15553;SDS011;7878;44.632;10.942;2022-08-21T15:56:28;3.75;;;1.90;;
15553;SDS011;7878;44.632;10.942;2022-08-21T15:59:04;1.75;;;1.65;;
15553;SDS011;7878;44.632;10.942;2022-08-21T16:01:32;3.72;;;1.70;;
15553;SDS011;7878;44.632;10.942;2022-08-21T16:04:00;2.17;;;1.50;;
15553;SDS011;7878;44.632;10.942;2022-08-21T16:06:27;4.32;;;1.80;;
15553;SDS011;7878;44.632;10.942;2022-08-21T16:08:52;3.10;;;2.30;;
15553;SDS011;7878;44.632;10.942;2022-08-21T16:11:18;3.67;;;1.60;;
15553;SDS011;7878;44.632;10.942;2022-08-21T16:13:44;1.70;;;1.60;;
15553;SDS011;7878;44.632;10.942;2022-08-21T16:16:12;2.33;;;1.60;;
15553;SDS011;7878;44.632;10.942;2022-08-21T16:18:45;1.92;;;1.83;;
15553;SDS011;7878;44.632;10.942;2022-08-21T16:21:12;1.88;;;1.45;;
15553;SDS011;7878;44.632;10.942;2022-08-21T16:23:38;1.77;;;1.67;;
15553;SDS011;7878;44.632;10.942;2022-08-21T16:26:05;1.55;;;1.45;;
15553;SDS011;7878;44.632;10.942;2022-08-21T16:28:33;2.17;;;1.52;;
15553;SDS011;7878;44.632;10.942;2022-08-21T16:31:02;1.92;;;1.80;;
15553;SDS011;7878;44.632;10.942;2022-08-21T16:33:32;2.33;;;1.63;;
15553;SDS011;7878;44.632;10.942;2022-08-21T16:36:00;1.50;;;1.40;;
15553;SDS011;7878;44.632;10.942;2022-08-21T16:38:26;1.80;;;1.70;;
15553;SDS011;7878;44.632;10.942;2022-08-21T16:40:53;1.90;;;1.70;;
15553;SDS011;7878;44.632;10.942;2022-08-21T16:43:20;2.17;;;1.80;;
15553;SDS011;7878;44.632;10.942;2022-08-21T16:45:49;1.70;;;1.60;;
15553;SDS011;7878;44.632;10.942;2022-08-21T16:48:15;1.80;;;1.70;;
15553;SDS011;7878;44.632;10.942;2022-08-21T16:50:40;2.00;;;1.80;;